Kenner, LA (70063)

1:39 AM CDT on August 27, 2016 (GMT -0500)
New Orleans International | | Change Station

Elev 3 ft 29.99 °N, 90.25 °W | Updated 46 minutes ago

Mostly Cloudy
Mostly Cloudy
83 °F
Feels Like 90 °F
N
0
Wind Variable Wind from North

Today
High -- | Low -- °F
--% Chance of Precip.
Yesterday
High -- | Low -- °F
Precip. -- in
Pressure 29.99 in
Visibility 10.0 miles
Clouds Mostly Cloudy 9000 ft
Heat Index 90 °F
Dew Point 75 °F
Humidity 77%
Rainfall 0.00 in
Snow Depth Not available.
6:35 AM 7:28 PM
Waning Crescent, 27% visible
METAR KMSY 270553Z 00000KT 10SM BKN090 28/24 A2998 RMK AO2 SLP156 T02830239 10300 20278 403390244 50001
Pressure 29.99 in
Visibility 10.0 miles
Clouds Mostly Cloudy 9000 ft
Heat Index 90 °F
Dew Point 75 °F
Humidity 77%
Rainfall 0.00 in
Snow Depth Not available.
6:35 AM 7:28 PM
Waning Crescent, 27% visible
METAR KMSY 270553Z 00000KT 10SM BKN090 28/24 A2998 RMK AO2 SLP156 T02830239 10300 20278 403390244 50001

10-Day Weather Forecast

Almanac

Astronomy

Aug. 27, 2016 Rise Set
Actual Time
Civil Twilight
Nautical Twilight
Astronomical Twilight
Moon
Length of Visible Light
Length of Day
Tomorrow will be .
, % of the Moon is Illuminated

Today's Extremes

State Highs State Lows

Community

WunderPhotos

Upload Photos

1,935,303 photos uploaded!

WunderBlog® & News

Nearby

Air Quality

  Air Quality AQ Index Pollutant
Not available.

Snow Depth

Station Depth Elevation

Earthquake Activity

City Distance Mag. Time & Date
Minimum magnitude displayed is 2.5.

Coastal Water Temperatures

Place Temperature

Stations

Nearby Weather Stations

Station Location Temp. Windchill Dew Point Humidity Wind Precip. Elev Updated Type
                   

Watches & Warnings

There are currently no watches in effect.